Time;durP1;ratioP1;P1;durP2;ratioP2;P2;SDS_P1;SDS_P2;PMS_P1;PMS_P2;Temp;Humidity;BMP_temperature;BMP_pressure;BME280_temperature;BME280_humidity;BME280_pressure;Samples;Min_cycle;Max_cycle;Signal;HPM_P1;HPM_P2
2024/01/13 00:01:38;;;;;;;32.87;16.33;;;-1.10;99.90;;;;;;5054256;28;20195;-82
2024/01/13 00:04:04;;;;;;;26.43;12.37;;;-1.10;99.90;;;;;;5055220;28;20176;-83
2024/01/13 00:06:29;;;;;;;29.40;14.07;;;-1.10;99.90;;;;;;5055309;28;20178;-82
2024/01/13 00:08:55;;;;;;;24.83;13.20;;;-1.10;99.90;;;;;;5037199;28;20186;-82
2024/01/13 00:11:20;;;;;;;24.47;12.77;;;-1.20;99.90;;;;;;5037040;28;20200;-82
2024/01/13 00:13:46;;;;;;;25.00;12.40;;;-1.20;99.90;;;;;;5037134;28;20203;-82
2024/01/13 00:16:11;;;;;;;25.40;12.17;;;-1.10;99.90;;;;;;5054756;28;20176;-82
2024/01/13 00:18:37;;;;;;;26.23;12.83;;;-1.10;99.90;;;;;;5055352;28;20172;-82
2024/01/13 00:21:02;;;;;;;24.93;12.80;;;-1.20;99.90;;;;;;5054625;28;20196;-82
2024/01/13 00:23:28;;;;;;;24.30;12.03;;;-1.10;99.90;;;;;;5037633;28;20212;-81
2024/01/13 00:25:54;;;;;;;27.17;12.57;;;-1.10;99.90;;;;;;5037350;28;20563;-82
2024/01/13 00:28:19;;;;;;;27.07;12.43;;;-1.20;99.90;;;;;;5037100;28;20177;-82
2024/01/13 00:30:45;;;;;;;27.27;12.70;;;-1.20;99.90;;;;;;5036205;28;20181;-82
2024/01/13 00:33:10;;;;;;;26.67;12.27;;;-1.20;99.90;;;;;;5055223;28;20848;-82
2024/01/13 00:35:36;;;;;;;26.00;12.70;;;-1.10;99.90;;;;;;5037198;28;20691;-82
2024/01/13 00:38:02;;;;;;;26.97;12.23;;;-1.20;99.90;;;;;;5037162;28;20182;-82
2024/01/13 00:40:27;;;;;;;27.47;13.00;;;-1.20;99.90;;;;;;5054373;28;20270;-82
2024/01/13 00:42:53;;;;;;;26.43;12.20;;;-1.20;99.90;;;;;;5055079;28;20688;-82
2024/01/13 00:45:18;;;;;;;25.83;12.60;;;-1.20;99.90;;;;;;5036910;28;20187;-81
2024/01/13 00:47:44;;;;;;;25.33;12.20;;;-1.20;99.90;;;;;;5036821;28;20181;-82
2024/01/13 00:50:10;;;;;;;23.33;11.97;;;-1.20;99.90;;;;;;5036613;28;20228;-82
2024/01/13 00:52:35;;;;;;;26.40;12.67;;;-1.20;99.90;;;;;;5036753;28;20738;-81
2024/01/13 00:55:01;;;;;;;26.37;12.17;;;-1.20;99.90;;;;;;5054727;28;20216;-82
2024/01/13 00:57:26;;;;;;;25.33;12.90;;;-1.20;99.90;;;;;;5037093;28;20179;-82
2024/01/13 00:59:52;;;;;;;26.83;12.53;;;-1.20;99.90;;;;;;5054946;28;20259;-82
2024/01/13 01:02:17;;;;;;;24.00;12.67;;;-1.20;99.90;;;;;;5054356;28;20265;-82
2024/01/13 01:04:43;;;;;;;27.80;12.97;;;-1.20;99.90;;;;;;5037075;28;20180;-82
2024/01/13 01:07:08;;;;;;;27.50;13.17;;;-1.20;99.90;;;;;;5036741;28;20176;-82
2024/01/13 01:09:34;;;;;;;24.77;12.23;;;-1.20;99.90;;;;;;5036446;28;20177;-82
2024/01/13 01:12:00;;;;;;;22.30;11.97;;;-1.20;99.90;;;;;;5036226;28;20614;-82
2024/01/13 01:14:25;;;;;;;25.17;13.00;;;-1.20;99.90;;;;;;5036420;28;20274;-83
2024/01/13 01:16:51;;;;;;;25.60;13.00;;;-1.20;99.90;;;;;;5054706;28;20266;-82
2024/01/13 01:19:16;;;;;;;26.87;11.90;;;-1.20;99.90;;;;;;5036600;28;20179;-81
2024/01/13 01:21:42;;;;;;;27.70;12.43;;;-1.20;99.90;;;;;;5053847;28;20196;-82
2024/01/13 01:24:08;;;;;;;24.23;13.13;;;-1.10;99.90;;;;;;5054381;28;20192;-83
2024/01/13 01:26:33;;;;;;;27.37;12.43;;;-1.10;99.90;;;;;;5036272;28;20239;-82
2024/01/13 01:28:59;;;;;;;25.23;13.00;;;-1.10;99.90;;;;;;5054321;28;20192;-82
2024/01/13 01:31:24;;;;;;;25.80;12.70;;;-1.10;99.90;;;;;;5035916;28;20677;-82
2024/01/13 01:33:50;;;;;;;23.60;12.67;;;-1.10;99.90;;;;;;5055002;28;20204;-82
2024/01/13 01:36:15;;;;;;;27.17;13.00;;;-1.10;99.90;;;;;;5058123;28;20223;-82
2024/01/13 01:38:41;;;;;;;24.53;12.30;;;-1.00;99.90;;;;;;5058024;28;20247;-82
2024/01/13 01:41:07;;;;;;;26.10;12.17;;;-1.00;99.90;;;;;;5039468;28;20200;-82
2024/01/13 01:43:33;;;;;;;26.17;13.70;;;-1.00;99.90;;;;;;5040155;28;20181;-82
2024/01/13 01:46:00;;;;;;;23.13;12.60;;;-1.10;99.90;;;;;;5040124;28;20184;-82
2024/01/13 01:48:32;;;;;;;27.53;13.10;;;-1.10;99.90;;;;;;5057782;28;20226;-82
2024/01/13 01:50:58;;;;;;;26.17;12.57;;;-1.10;99.90;;;;;;5057326;28;20196;-82
2024/01/13 01:53:24;;;;;;;28.43;12.60;;;-1.10;99.90;;;;;;5058163;28;20195;-81
2024/01/13 01:55:50;;;;;;;24.93;12.17;;;-1.00;99.90;;;;;;5057894;28;20185;-82
2024/01/13 01:58:16;;;;;;;24.47;12.40;;;-1.00;99.90;;;;;;5057425;28;20259;-82
2024/01/13 02:00:42;;;;;;;25.93;12.30;;;-1.00;99.90;;;;;;5056737;28;20223;-81
2024/01/13 02:03:07;;;;;;;26.27;12.73;;;-1.00;99.90;;;;;;5057747;28;20180;-82
2024/01/13 02:05:34;;;;;;;27.43;13.43;;;-1.00;99.90;;;;;;5057588;28;20206;-82
2024/01/13 02:08:00;;;;;;;24.23;12.20;;;-1.00;99.90;;;;;;5057447;28;20220;-81
2024/01/13 02:10:27;;;;;;;25.67;11.90;;;-0.90;99.90;;;;;;5039218;28;20181;-82
2024/01/13 02:12:53;;;;;;;28.97;13.37;;;-0.90;99.90;;;;;;5039447;28;20208;-82
2024/01/13 02:15:18;;;;;;;28.53;13.10;;;-1.00;99.90;;;;;;5056750;28;20216;-82
2024/01/13 02:17:44;;;;;;;28.20;12.73;;;-1.00;99.90;;;;;;5039696;28;20173;-82
2024/01/13 02:20:10;;;;;;;27.80;13.10;;;-1.00;99.90;;;;;;5038740;28;20338;-81
2024/01/13 02:22:35;;;;;;;26.73;12.17;;;-0.90;99.90;;;;;;5057273;28;20197;-82
2024/01/13 02:25:04;;;;;;;24.40;12.10;;;-0.90;99.90;;;;;;5039333;28;20187;-82
2024/01/13 02:27:30;;;;;;;26.73;12.33;;;-0.90;99.90;;;;;;5056979;28;20208;-82
2024/01/13 02:29:55;;;;;;;25.30;13.27;;;-0.90;99.90;;;;;;5057086;28;20592;-83
2024/01/13 02:32:21;;;;;;;27.73;13.30;;;-0.90;99.90;;;;;;5038925;28;20218;-82
2024/01/13 02:34:47;;;;;;;25.53;12.10;;;-0.90;99.90;;;;;;5057117;28;20205;-82
2024/01/13 02:37:13;;;;;;;25.80;12.77;;;-0.90;99.90;;;;;;5039320;28;20550;-82
2024/01/13 02:39:38;;;;;;;28.20;12.77;;;-1.00;99.90;;;;;;5038935;28;20177;-82
2024/01/13 02:42:04;;;;;;;27.97;13.07;;;-1.00;99.90;;;;;;5038398;28;20244;-82
2024/01/13 02:44:30;;;;;;;28.77;12.77;;;-1.00;99.90;;;;;;5038412;28;20185;-84
2024/01/13 02:46:56;;;;;;;25.80;12.50;;;-1.00;99.90;;;;;;5056766;28;20169;-82
2024/01/13 02:49:22;;;;;;;24.10;12.17;;;-0.90;99.90;;;;;;5038100;28;20188;-82
2024/01/13 02:51:47;;;;;;;23.67;11.73;;;-0.90;99.90;;;;;;5056062;28;20213;-82
2024/01/13 02:54:13;;;;;;;26.60;11.93;;;-0.80;99.90;;;;;;5038087;28;20197;-82
2024/01/13 02:56:39;;;;;;;27.07;12.40;;;-0.80;99.90;;;;;;5038192;28;20172;-82
2024/01/13 02:59:04;;;;;;;26.07;12.10;;;-0.90;99.90;;;;;;5056590;28;20203;-84
2024/01/13 03:01:33;;;;;;;26.43;11.97;;;-0.90;99.90;;;;;;5038307;28;20307;-82
2024/01/13 03:03:59;;;;;;;26.03;12.27;;;-0.80;99.90;;;;;;5056379;28;20182;-82
2024/01/13 03:06:25;;;;;;;27.17;13.33;;;-0.80;99.90;;;;;;5056143;28;20180;-82
2024/01/13 03:08:52;;;;;;;26.23;12.43;;;-0.80;99.90;;;;;;5056177;28;20184;-82
2024/01/13 03:11:17;;;;;;;26.63;12.50;;;-0.80;99.90;;;;;;5055789;28;20204;-81
2024/01/13 03:13:43;;;;;;;25.60;12.67;;;-0.80;99.90;;;;;;5039082;28;20197;-82
2024/01/13 03:16:09;;;;;;;28.00;12.40;;;-0.80;99.90;;;;;;5038239;28;20177;-82
2024/01/13 03:18:35;;;;;;;24.67;11.63;;;-0.70;99.90;;;;;;5055855;28;20178;-83
2024/01/13 03:21:02;;;;;;;27.37;13.00;;;-0.80;99.90;;;;;;5055669;28;20218;-83
2024/01/13 03:23:29;;;;;;;27.33;12.87;;;-0.80;99.90;;;;;;5055996;28;20173;-82
2024/01/13 03:25:55;;;;;;;27.13;12.57;;;-0.80;99.90;;;;;;5038108;28;20204;-82
2024/01/13 03:28:21;;;;;;;26.87;12.10;;;-0.80;99.90;;;;;;5056305;28;20181;-82
2024/01/13 03:30:47;;;;;;;24.87;12.13;;;-0.80;99.90;;;;;;5037219;28;20741;-83
2024/01/13 03:33:12;;;;;;;25.93;12.90;;;-0.80;99.90;;;;;;5038256;28;20209;-82
2024/01/13 03:35:38;;;;;;;25.20;12.87;;;-0.80;99.90;;;;;;5037841;28;20212;-82
2024/01/13 03:38:04;;;;;;;28.10;12.93;;;-0.80;99.90;;;;;;5055543;28;20187;-82
2024/01/13 03:40:29;;;;;;;28.80;12.87;;;-0.80;99.90;;;;;;5037386;28;20648;-83
2024/01/13 03:42:55;;;;;;;24.47;12.57;;;-0.80;99.90;;;;;;5055785;28;20196;-81
2024/01/13 03:45:20;;;;;;;26.13;12.57;;;-0.80;99.90;;;;;;5037848;28;20192;-82
2024/01/13 03:47:46;;;;;;;24.90;12.33;;;-0.80;99.90;;;;;;5037683;28;20270;-82
2024/01/13 03:50:12;;;;;;;26.97;12.57;;;-0.80;99.90;;;;;;5055007;28;20234;-82
2024/01/13 03:52:37;;;;;;;24.20;12.13;;;-0.80;99.90;;;;;;5037703;28;20267;-82
2024/01/13 03:55:03;;;;;;;26.63;12.33;;;-0.80;99.90;;;;;;5037533;28;20254;-82
2024/01/13 03:57:29;;;;;;;26.07;12.40;;;-0.80;99.90;;;;;;5054994;28;20576;-82
2024/01/13 03:59:54;;;;;;;28.37;13.63;;;-0.80;99.90;;;;;;5037656;28;20176;-82
2024/01/13 04:02:20;;;;;;;26.20;12.53;;;-0.90;99.90;;;;;;5037222;28;20193;-82
2024/01/13 04:04:45;;;;;;;24.47;11.50;;;-0.90;99.90;;;;;;5037428;28;20180;-82
2024/01/13 04:07:11;;;;;;;22.83;11.43;;;-0.90;99.90;;;;;;5037577;28;20234;-80
2024/01/13 04:09:39;;;;;;;23.27;12.60;;;-0.90;99.90;;;;;;5037506;28;20177;-82
2024/01/13 04:12:05;;;;;;;22.77;12.00;;;-0.90;99.90;;;;;;5054828;28;20192;-82
2024/01/13 04:14:31;;;;;;;29.67;14.67;;;-0.90;99.90;;;;;;5037496;28;20199;-82
2024/01/13 04:16:57;;;;;;;24.77;12.33;;;-0.80;99.90;;;;;;5055349;28;20173;-82
2024/01/13 04:19:22;;;;;;;28.23;13.03;;;-0.80;99.90;;;;;;5037695;28;20175;-82
2024/01/13 04:21:48;;;;;;;25.77;12.23;;;-0.80;99.90;;;;;;5037132;28;20192;-82
2024/01/13 04:24:13;;;;;;;25.50;12.37;;;-0.80;99.90;;;;;;5037217;28;20193;-82
2024/01/13 04:26:40;;;;;;;25.63;12.70;;;-0.80;99.90;;;;;;5055198;28;20638;-82
2024/01/13 04:29:05;;;;;;;27.97;13.03;;;-0.80;99.90;;;;;;5055260;28;20204;-82
2024/01/13 04:31:31;;;;;;;25.73;12.37;;;-0.80;99.90;;;;;;5036855;28;20223;-82
2024/01/13 04:33:56;;;;;;;27.60;12.90;;;-0.80;99.90;;;;;;5054639;28;20205;-82
2024/01/13 04:36:22;;;;;;;24.87;12.60;;;-0.80;99.90;;;;;;5037247;28;20172;-80
2024/01/13 04:38:49;;;;;;;26.27;12.53;;;-0.80;99.90;;;;;;5036150;28;20185;-81
2024/01/13 04:41:15;;;;;;;29.43;13.47;;;-0.90;99.90;;;;;;5046711;28;20211;-82
2024/01/13 04:43:42;;;;;;;26.27;12.47;;;-0.90;99.90;;;;;;5055235;28;20279;-81
2024/01/13 04:46:10;;;;;;;26.50;12.67;;;-0.90;99.90;;;;;;5037259;28;20185;-82
2024/01/13 04:48:36;;;;;;;28.07;13.50;;;-0.90;99.90;;;;;;5037750;28;20601;-81
2024/01/13 04:51:02;;;;;;;26.77;12.13;;;-1.00;99.90;;;;;;5055274;28;20193;-81
2024/01/13 04:53:27;;;;;;;25.73;11.57;;;-1.00;99.90;;;;;;5037684;28;20588;-82
2024/01/13 04:55:53;;;;;;;25.47;12.00;;;-1.00;99.90;;;;;;5037684;28;20172;-82
2024/01/13 04:58:19;;;;;;;25.80;11.57;;;-1.00;99.90;;;;;;5037681;28;20192;-81
2024/01/13 05:00:44;;;;;;;22.40;11.07;;;-1.00;99.90;;;;;;5037338;28;20188;-81
2024/01/13 05:03:10;;;;;;;22.60;10.93;;;-1.00;99.90;;;;;;5037416;28;20230;-82
2024/01/13 05:05:36;;;;;;;23.83;11.60;;;-0.90;99.90;;;;;;5037760;28;20185;-82
2024/01/13 05:08:02;;;;;;;22.60;11.10;;;-0.90;99.90;;;;;;5037757;28;20176;-82
2024/01/13 05:10:27;;;;;;;24.17;12.43;;;-0.90;99.90;;;;;;5040235;28;20181;-82
2024/01/13 05:12:53;;;;;;;24.17;11.77;;;-0.90;99.90;;;;;;5059156;28;20200;-82
2024/01/13 05:15:19;;;;;;;23.70;12.70;;;-0.90;99.90;;;;;;5041245;28;20321;-81
2024/01/13 05:17:44;;;;;;;22.93;11.43;;;-0.90;99.90;;;;;;5040744;28;20180;-81
2024/01/13 05:20:10;;;;;;;24.17;12.33;;;-0.90;99.90;;;;;;5041170;28;20176;-81
2024/01/13 05:22:36;;;;;;;25.03;11.60;;;-0.90;99.90;;;;;;5040811;28;20200;-81
2024/01/13 05:25:01;;;;;;;26.77;12.57;;;-0.80;99.90;;;;;;5059228;28;20189;-82
2024/01/13 05:27:27;;;;;;;22.73;10.77;;;-0.80;99.90;;;;;;5059551;28;20181;-82
2024/01/13 05:29:52;;;;;;;24.23;12.30;;;-0.80;99.90;;;;;;5040967;28;20176;-82
2024/01/13 05:32:18;;;;;;;26.13;12.13;;;-0.80;99.90;;;;;;5040335;28;20616;-82
2024/01/13 05:34:44;;;;;;;26.10;12.40;;;-0.80;99.90;;;;;;5040885;28;20234;-81
2024/01/13 05:37:09;;;;;;;25.53;12.37;;;-0.90;99.90;;;;;;5041004;28;20183;-81
2024/01/13 05:39:35;;;;;;;28.80;13.37;;;-0.80;99.90;;;;;;5040378;28;20175;-82
2024/01/13 05:42:01;;;;;;;24.17;12.83;;;-0.90;99.90;;;;;;5040442;28;20246;-82
2024/01/13 05:44:27;;;;;;;26.30;13.07;;;-0.80;99.90;;;;;;5041147;28;20177;-82
2024/01/13 05:46:53;;;;;;;26.43;12.73;;;-0.80;99.90;;;;;;5041231;28;20176;-82
2024/01/13 05:49:18;;;;;;;26.00;12.23;;;-0.90;99.90;;;;;;5040475;28;20187;-80
2024/01/13 05:51:44;;;;;;;27.17;12.40;;;-0.90;99.90;;;;;;5040072;28;20208;-82
2024/01/13 05:54:10;;;;;;;27.63;12.97;;;-0.90;99.90;;;;;;5040520;28;20255;-82
2024/01/13 05:56:36;;;;;;;26.40;12.70;;;-0.90;99.90;;;;;;5040540;28;20200;-83
2024/01/13 05:59:01;;;;;;;31.50;13.73;;;-0.90;99.90;;;;;;5040439;28;20176;-82
2024/01/13 06:01:27;;;;;;;27.30;13.63;;;-0.90;99.90;;;;;;5057524;28;20200;-81
2024/01/13 06:03:53;;;;;;;28.63;13.67;;;-0.90;99.90;;;;;;5039733;28;20208;-81
2024/01/13 06:06:18;;;;;;;28.80;14.00;;;-0.90;99.90;;;;;;5060135;28;20184;-82
2024/01/13 06:08:44;;;;;;;27.53;12.80;;;-0.90;99.90;;;;;;5039943;28;20709;-81
2024/01/13 06:11:10;;;;;;;24.50;12.90;;;-0.90;99.90;;;;;;5040047;28;20196;-81
2024/01/13 06:13:36;;;;;;;25.17;12.13;;;-0.90;99.90;;;;;;5042198;28;20234;-82
2024/01/13 06:16:02;;;;;;;28.03;12.43;;;-0.90;99.90;;;;;;5058873;28;20180;-81
2024/01/13 06:18:27;;;;;;;26.70;12.07;;;-0.90;99.90;;;;;;5039985;28;20182;-80
2024/01/13 06:20:53;;;;;;;27.57;12.90;;;-1.00;99.90;;;;;;5039361;28;20177;-80
2024/01/13 06:23:19;;;;;;;26.57;14.23;;;-1.00;99.90;;;;;;5040629;28;20195;-80
2024/01/13 06:25:44;;;;;;;27.70;12.70;;;-1.00;99.90;;;;;;5039940;28;20191;-80
2024/01/13 06:28:10;;;;;;;29.93;14.13;;;-1.00;99.90;;;;;;5058255;28;20181;-80
2024/01/13 06:30:36;;;;;;;26.13;12.70;;;-1.00;99.90;;;;;;5040013;28;20192;-80
2024/01/13 06:33:02;;;;;;;25.23;13.07;;;-1.00;99.90;;;;;;5058348;28;20676;-80
2024/01/13 06:35:28;;;;;;;27.30;12.57;;;-1.00;99.90;;;;;;5058095;28;20575;-80
2024/01/13 06:37:53;;;;;;;25.90;12.40;;;-1.00;99.90;;;;;;5040349;28;20172;-80
2024/01/13 06:40:19;;;;;;;23.63;11.93;;;-1.00;99.90;;;;;;5039597;28;20198;-80
2024/01/13 06:42:44;;;;;;;25.93;12.70;;;-0.90;99.90;;;;;;5040509;28;20220;-80
2024/01/13 06:45:10;;;;;;;23.93;12.53;;;-0.90;99.90;;;;;;5040100;28;20179;-80
2024/01/13 06:47:35;;;;;;;24.20;11.63;;;-0.90;99.90;;;;;;5040236;28;20181;-80
2024/01/13 06:50:03;;;;;;;28.23;13.03;;;-0.90;99.90;;;;;;5056664;28;20176;-80
2024/01/13 06:52:29;;;;;;;25.03;12.87;;;-0.90;99.90;;;;;;5057268;28;20264;-80
2024/01/13 06:54:55;;;;;;;25.07;12.47;;;-0.90;99.90;;;;;;5056092;28;20271;-80
2024/01/13 06:57:22;;;;;;;25.80;12.83;;;-0.90;99.90;;;;;;5038058;28;20525;-82
2024/01/13 06:59:47;;;;;;;28.90;13.00;;;-0.80;99.90;;;;;;5055954;28;20196;-80
2024/01/13 07:02:14;;;;;;;26.40;13.33;;;-0.80;99.90;;;;;;5038844;28;20193;-80
2024/01/13 07:04:41;;;;;;;25.50;11.90;;;-0.80;99.90;;;;;;5039478;28;20230;-80
2024/01/13 07:07:08;;;;;;;26.27;12.73;;;-0.90;99.90;;;;;;5039276;28;20177;-81
2024/01/13 07:09:33;;;;;;;26.33;12.50;;;-0.90;99.90;;;;;;5037353;28;20177;-81
2024/01/13 07:11:59;;;;;;;26.67;12.60;;;-0.90;99.90;;;;;;5037661;28;20207;-83
2024/01/13 07:14:25;;;;;;;28.67;12.17;;;-0.90;99.90;;;;;;5053934;28;20197;-82
2024/01/13 07:16:50;;;;;;;27.40;13.13;;;-0.90;99.90;;;;;;5037129;28;20238;-81
2024/01/13 07:19:16;;;;;;;28.47;12.87;;;-0.90;99.90;;;;;;5054507;28;20181;-78
2024/01/13 07:21:42;;;;;;;28.10;13.33;;;-0.70;99.90;;;;;;5037399;28;20279;-80
2024/01/13 07:24:09;;;;;;;30.97;14.23;;;-0.40;99.90;;;;;;5037945;28;20183;-81
2024/01/13 07:26:38;;;;;;;28.47;14.10;;;-0.10;99.90;;;;;;5040115;28;20263;-81
2024/01/13 07:29:04;;;;;;;29.00;14.43;;;-0.20;99.90;;;;;;5039262;28;20176;-81
2024/01/13 07:31:29;;;;;;;27.80;14.00;;;-0.10;99.90;;;;;;5037670;28;20203;-80
2024/01/13 07:33:55;;;;;;;31.57;15.73;;;-0.30;99.90;;;;;;5056976;28;20200;-82
2024/01/13 07:36:21;;;;;;;29.03;15.03;;;-0.40;99.90;;;;;;5053778;28;20179;-83
2024/01/13 07:38:46;;;;;;;25.03;12.97;;;-0.50;99.90;;;;;;5035716;28;20542;-83
2024/01/13 07:41:12;;;;;;;29.50;14.00;;;-0.50;99.90;;;;;;5034406;28;20192;-83
2024/01/13 07:43:38;;;;;;;29.90;13.73;;;-0.60;99.90;;;;;;5035392;28;20162;-83
2024/01/13 07:46:03;;;;;;;29.50;13.97;;;-0.60;99.90;;;;;;5036329;28;20711;-81
2024/01/13 07:48:29;;;;;;;27.53;13.87;;;-0.60;99.90;;;;;;5036156;28;20182;-80
2024/01/13 07:50:54;;;;;;;27.33;14.03;;;-0.60;99.90;;;;;;5035478;28;20545;-81
2024/01/13 07:53:20;;;;;;;28.13;14.20;;;-0.50;99.90;;;;;;5036127;28;20653;-82
2024/01/13 07:55:45;;;;;;;28.60;14.13;;;-0.60;99.90;;;;;;5035574;28;20203;-81
2024/01/13 07:58:11;;;;;;;28.17;14.33;;;-0.60;99.90;;;;;;5054189;28;20231;-81
2024/01/13 08:00:37;;;;;;;32.90;15.60;;;-0.70;99.90;;;;;;5035396;28;20180;-81
2024/01/13 08:03:04;;;;;;;44.03;28.17;;;-0.70;99.90;;;;;;5053955;28;20216;-82
2024/01/13 08:05:31;;;;;;;48.90;24.63;;;-0.20;99.90;;;;;;5034922;28;20192;-83
2024/01/13 08:07:56;;;;;;;38.80;23.63;;;1.40;99.90;;;;;;5035080;28;20177;-83
2024/01/13 08:10:22;;;;;;;30.13;17.03;;;2.60;99.90;;;;;;5034199;28;20190;-82
2024/01/13 08:12:48;;;;;;;31.63;16.73;;;2.30;99.90;;;;;;5034739;28;20204;-83
2024/01/13 08:15:14;;;;;;;28.37;15.07;;;3.10;99.90;;;;;;5035267;28;20289;-81
2024/01/13 08:17:40;;;;;;;25.43;13.70;;;3.00;99.90;;;;;;5035744;28;20180;-81
2024/01/13 08:20:06;;;;;;;24.70;13.20;;;2.00;1.00;;;;;;5053174;28;20244;-82
2024/01/13 08:22:32;;;;;;;26.63;14.03;;;1.30;80.30;;;;;;5032427;28;20192;-82
2024/01/13 08:24:57;;;;;;;27.37;13.93;;;0.60;99.90;;;;;;5032525;28;20178;-82
2024/01/13 08:27:24;;;;;;;26.63;13.43;;;0.20;99.90;;;;;;5032950;28;20185;-84
2024/01/13 08:29:50;;;;;;;26.00;13.63;;;0.10;99.90;;;;;;5032401;28;20178;-82
2024/01/13 08:32:15;;;;;;;27.17;13.47;;;0.00;99.90;;;;;;5032228;28;20208;-82
2024/01/13 08:34:41;;;;;;;26.17;14.30;;;-0.10;99.90;;;;;;5050556;28;20205;-82
2024/01/13 08:37:06;;;;;;;25.47;13.93;;;-0.10;99.90;;;;;;5033705;28;20183;-82
2024/01/13 08:39:32;;;;;;;30.57;15.57;;;-0.30;99.90;;;;;;5052558;28;20208;-82
2024/01/13 08:41:58;;;;;;;27.53;14.43;;;-0.30;99.90;;;;;;5052089;28;20200;-83
2024/01/13 08:44:23;;;;;;;25.63;13.30;;;-0.30;99.90;;;;;;5038014;28;20216;-82
2024/01/13 08:46:49;;;;;;;28.20;14.33;;;-0.30;99.90;;;;;;5038899;28;20251;-82
2024/01/13 08:49:15;;;;;;;27.07;13.40;;;-0.30;99.90;;;;;;5056580;28;20173;-82
2024/01/13 08:51:40;;;;;;;24.83;14.00;;;-0.30;99.90;;;;;;5038002;28;20216;-83
2024/01/13 08:54:06;;;;;;;27.50;13.93;;;-0.30;99.90;;;;;;5056535;28;20221;-83
2024/01/13 08:56:34;;;;;;;28.60;14.43;;;-0.30;99.90;;;;;;5038618;28;20180;-83
2024/01/13 08:59:01;;;;;;;28.10;13.63;;;-0.30;99.90;;;;;;5038003;28;20233;-82
2024/01/13 09:01:26;;;;;;;28.63;14.60;;;-0.40;99.90;;;;;;5038085;28;20290;-82
2024/01/13 09:03:52;;;;;;;30.67;15.20;;;-0.40;99.90;;;;;;5038462;28;20244;-82
2024/01/13 09:06:17;;;;;;;31.27;17.57;;;-0.40;99.90;;;;;;5056804;28;20178;-82
2024/01/13 09:08:43;;;;;;;31.33;15.60;;;-0.30;99.90;;;;;;5038491;28;20181;-82
2024/01/13 09:11:09;;;;;;;28.70;15.80;;;-0.40;99.90;;;;;;5055782;28;20193;-83
2024/01/13 09:13:34;;;;;;;28.27;15.83;;;-0.30;99.90;;;;;;5056101;28;20176;-83
2024/01/13 09:16:00;;;;;;;30.60;15.83;;;-0.30;99.90;;;;;;5056263;28;20299;-82
2024/01/13 09:18:26;;;;;;;29.20;16.13;;;-0.30;99.90;;;;;;5055822;28;20170;-82
2024/01/13 09:20:51;;;;;;;32.97;16.97;;;-0.30;99.90;;;;;;5055491;28;20181;-82
2024/01/13 09:23:17;;;;;;;30.40;15.50;;;-0.30;99.90;;;;;;5056096;28;20181;-82
2024/01/13 09:25:42;;;;;;;29.93;14.63;;;-0.30;99.90;;;;;;5038036;28;20235;-83
2024/01/13 09:28:09;;;;;;;29.87;14.67;;;-0.30;99.90;;;;;;5038140;28;20556;-82
2024/01/13 09:30:35;;;;;;;28.17;14.97;;;-0.30;99.90;;;;;;5055888;28;20189;-79
2024/01/13 09:33:01;;;;;;;27.80;15.13;;;-0.30;99.90;;;;;;5055659;28;20250;-82
2024/01/13 09:35:30;;;;;;;30.77;14.90;;;-0.30;99.90;;;;;;5055651;28;20201;-82
2024/01/13 09:37:59;;;;;;;32.37;15.47;;;-0.30;99.90;;;;;;5037868;28;20177;-82
2024/01/13 09:40:25;;;;;;;34.17;16.40;;;-0.30;99.90;;;;;;5054918;28;20181;-83
2024/01/13 09:43:18;;;;;;;33.00;17.07;;;-0.30;99.90;;;;;;5037783;28;20232;-83
2024/01/13 09:45:47;;;;;;;34.37;16.47;;;-0.30;99.90;;;;;;5055708;28;20181;-82
2024/01/13 09:48:17;;;;;;;35.63;21.17;;;-0.20;99.90;;;;;;5055653;28;20185;-82
2024/01/13 09:50:54;;;;;;;30.23;14.47;;;-0.10;99.90;;;;;;5054873;28;20185;-82
2024/01/13 09:53:31;;;;;;;29.07;15.00;;;-0.20;99.90;;;;;;5055378;28;20196;-82
2024/01/13 09:56:05;;;;;;;31.73;15.60;;;-0.20;99.90;;;;;;5055064;28;20233;-82
2024/01/13 09:58:31;;;;;;;31.27;15.43;;;-0.20;99.90;;;;;;5055344;28;20181;-82
2024/01/13 10:00:59;;;;;;;30.73;15.77;;;-0.10;99.90;;;;;;5054762;28;20205;-82
2024/01/13 10:03:25;;;;;;;35.47;16.57;;;-0.20;99.90;;;;;;5037361;28;20177;-82
2024/01/13 10:05:52;;;;;;;31.10;15.00;;;-0.20;99.90;;;;;;5037205;28;20559;-82
2024/01/13 10:08:30;;;;;;;30.00;15.77;;;-0.20;99.90;;;;;;5037454;28;20646;-83
2024/01/13 10:10:55;;;;;;;29.47;15.57;;;-0.20;99.90;;;;;;5054700;28;20184;-82
2024/01/13 10:13:21;;;;;;;34.87;16.97;;;-0.30;99.90;;;;;;5036856;28;20671;-82
2024/01/13 10:15:47;;;;;;;33.83;17.00;;;-0.30;99.90;;;;;;5037140;28;20208;-82
2024/01/13 10:18:13;;;;;;;33.00;16.20;;;-0.30;99.90;;;;;;5055364;28;20239;-81
2024/01/13 10:20:39;;;;;;;29.77;14.90;;;-0.30;99.90;;;;;;5055615;28;20215;-79
2024/01/13 10:23:05;;;;;;;31.40;15.80;;;-0.30;99.90;;;;;;5037867;28;20177;-82
2024/01/13 10:25:30;;;;;;;33.00;15.77;;;-0.30;99.90;;;;;;5038327;28;20247;-80
2024/01/13 10:27:56;;;;;;;33.23;15.77;;;-0.30;99.90;;;;;;5056387;28;20178;-81
2024/01/13 10:30:22;;;;;;;33.77;16.37;;;-0.30;99.90;;;;;;5037751;28;20181;-80
2024/01/13 10:32:47;;;;;;;33.73;16.80;;;-0.20;99.90;;;;;;5056509;28;20208;-81
2024/01/13 10:35:17;;;;;;;34.57;16.90;;;-0.20;99.90;;;;;;5056779;28;20213;-81
2024/01/13 10:37:42;;;;;;;31.90;16.17;;;-0.20;99.90;;;;;;5056750;28;20191;-80
2024/01/13 10:40:09;;;;;;;33.93;17.23;;;-0.20;99.90;;;;;;5055555;28;20184;-80
2024/01/13 10:42:37;;;;;;;35.07;17.03;;;-0.20;99.90;;;;;;5038554;28;20186;-80
2024/01/13 10:45:09;;;;;;;36.60;18.43;;;-0.20;99.90;;;;;;5038811;28;20188;-82
2024/01/13 10:47:41;;;;;;;36.37;18.70;;;-0.20;99.90;;;;;;5053422;28;20192;-80
2024/01/13 10:50:10;;;;;;;37.27;18.10;;;-0.10;99.90;;;;;;5035728;28;20187;-80
2024/01/13 10:53:09;;;;;;;34.20;18.13;;;-0.10;99.90;;;;;;5064655;22;20240;-81
2024/01/13 10:55:36;;;;;;;34.97;17.93;;;-0.10;99.90;;;;;;5027457;28;20263;-83
2024/01/13 10:58:02;;;;;;;34.90;17.53;;;-0.10;99.90;;;;;;5032731;28;20311;-82
2024/01/13 11:00:31;;;;;;;33.87;17.83;;;0.00;99.90;;;;;;5032009;28;20170;-82
2024/01/13 11:02:59;;;;;;;32.50;17.03;;;0.00;99.90;;;;;;5050740;28;20198;-82
2024/01/13 11:05:28;;;;;;;35.23;17.10;;;0.00;99.90;;;;;;5052317;28;20551;-82
2024/01/13 11:07:55;;;;;;;32.97;17.97;;;0.00;99.90;;;;;;5052170;28;20180;-82
2024/01/13 11:10:26;;;;;;;31.27;17.67;;;0.00;99.90;;;;;;5052098;28;20178;-82
2024/01/13 11:13:12;;;;;;;35.00;17.43;;;-0.10;99.90;;;;;;5052017;28;20205;-83
2024/01/13 11:15:56;;;;;;;32.37;16.93;;;-0.10;99.90;;;;;;5053159;28;20252;-83
2024/01/13 11:18:22;;;;;;;32.77;17.27;;;-0.10;99.90;;;;;;5053054;28;20539;-83
2024/01/13 11:21:07;;;;;;;32.60;17.07;;;-0.10;99.90;;;;;;5052639;28;20178;-83
2024/01/13 11:23:36;;;;;;;35.30;17.70;;;-0.10;99.90;;;;;;5053282;28;20265;-83
2024/01/13 11:26:02;;;;;;;36.63;18.53;;;-0.20;99.90;;;;;;5052989;28;20173;-82
2024/01/13 11:28:48;;;;;;;33.57;16.40;;;-0.20;99.90;;;;;;5051865;28;20172;-83
2024/01/13 11:31:38;;;;;;;33.17;17.73;;;-0.20;99.90;;;;;;5052600;28;20193;-84
2024/01/13 11:34:09;;;;;;;31.43;16.20;;;-0.20;99.90;;;;;;5042950;28;20693;-81
2024/01/13 11:36:39;;;;;;;34.13;18.20;;;0.70;99.90;;;;;;5052835;28;20170;-80
2024/01/13 11:39:06;;;;;;;26.83;15.27;;;2.00;99.90;;;;;;5052960;28;20243;-79
2024/01/13 11:41:39;;;;;;;37.27;19.07;;;2.20;99.90;;;;;;5053423;28;20298;-82
2024/01/13 11:44:06;;;;;;;31.03;17.30;;;2.40;99.90;;;;;;5053731;28;20179;-82
2024/01/13 11:46:35;;;;;;;29.63;17.93;;;1.60;99.90;;;;;;5054435;28;20651;-81
2024/01/13 11:49:04;;;;;;;32.53;18.23;;;1.30;99.90;;;;;;5051651;28;20173;-82
2024/01/13 11:51:54;;;;;;;32.57;17.60;;;1.00;99.90;;;;;;5052673;28;20213;-82
2024/01/13 11:54:20;;;;;;;33.30;18.23;;;0.70;99.90;;;;;;5052862;28;20210;-81
2024/01/13 11:56:48;;;;;;;32.53;17.27;;;0.50;99.90;;;;;;5051962;28;20768;-81
2024/01/13 11:59:15;;;;;;;30.73;16.83;;;0.40;99.90;;;;;;5054534;28;20181;-81
2024/01/13 12:01:41;;;;;;;34.90;21.57;;;0.40;99.90;;;;;;5051308;28;20218;-81
2024/01/13 12:04:08;;;;;;;36.40;20.73;;;0.30;99.90;;;;;;5051287;28;20666;-82
2024/01/13 12:06:34;;;;;;;37.67;24.20;;;0.20;99.90;;;;;;5052721;28;20257;-81
2024/01/13 12:09:00;;;;;;;29.00;17.40;;;0.20;99.90;;;;;;5051237;28;20173;-81
2024/01/13 12:11:25;;;;;;;32.43;17.83;;;0.30;99.90;;;;;;5052039;28;20201;-81
2024/01/13 12:13:51;;;;;;;26.77;16.43;;;0.20;99.90;;;;;;5052294;28;20244;-82
2024/01/13 12:16:17;;;;;;;28.37;16.57;;;0.30;99.90;;;;;;5051273;28;20205;-81
2024/01/13 12:18:46;;;;;;;30.70;16.40;;;0.30;99.90;;;;;;5050484;28;20182;-82
2024/01/13 12:21:13;;;;;;;29.97;15.87;;;0.30;99.90;;;;;;5051879;28;20574;-82
2024/01/13 12:23:39;;;;;;;25.00;14.60;;;0.30;99.90;;;;;;5051304;28;20174;-82
2024/01/13 12:26:05;;;;;;;27.73;15.30;;;0.30;99.90;;;;;;5050929;28;20182;-82